Tiempo atmosférico en la estación meteorológica de Rasquera, Tarragona (186 m.)



Fecha
DESCASC
Temp. máxima en grados centígrados (hora)
DESCASC
Temp. mínima en grados centígrados (hora)
DESCASC
Temp. media en grados centígrados
DESCASC
Racha de viento máxima en m/sg (hora)
DESCASC
Velocidad máxima media en intervalos de 10 minutos(hora)
DESCASC
Precipitaciones diarias en mm
DESCASC
Precipitaciones de 00:00 a 06:00 en mm
DESCASC
Precipitaciones de 06:00 a 12:00 en mm
DESCASC
Precipitaciones de 12:00 a 18:00 en mm
DESCASC
Precipitaciones de 18:00 a 24:00 en mm
DESCASC
16-04-2019 21.9 (15:10) 11.7 (06:50) 16.8 11.11 (17:40) 7.22 (16:30) 0 0 0 0 0
15-04-2019 16.7 (16:00) 9.5 (05:40) 13.1 11.39 (16:10) 6.39 (16:10) 0 0 0 0 0
14-04-2019 26.5 (15:10) 3.3 (06:10) 14.9 13.33 (15:20) 7.22 (18:40) 0 0 0 0 0
13-04-2019 23.9 (16:50) 7.1 (00:00) 15.5 9.17 (10:10) 5.83 (10:30) 0 0 0 0 0
12-04-2019 21.3 (17:50) 10.5 (00:00) 15.9 13.06 (00:10) 7.22 (00:20) 0 0 0 0 0
11-04-2019 20 (16:10) 9.8 (00:00) 14.9 15.83 (20:00) 8.89 (22:10) 0 0 0 0 0
10-04-2019 20.5 (18:40) 9 (00:00) 14.8 13.61 (11:00) 7.5 (11:30) 2 0 0 0 2
09-04-2019 21 (15:50) 8.6 (00:00) 14.8 13.33 (10:40) 6.67 (10:40) 0 0 0 0 0
08-04-2019 21.6 (16:40) 4.4 (00:00) 13 12.78 (14:30) 6.39 (14:40) 0 0 0 0 0
07-04-2019 18.3 (18:30) 4.8 (00:00) 11.5 13.89 (16:30) 7.5 (16:20) 0 0 0 0 0
06-04-2019 17.5 (16:00) 5 (00:00) 11.3 10.28 (11:30) 5.56 (11:30) 1 0 0 0 1
05-04-2019 17.2 (12:20) 8.3 (00:00) 12.8 11.11 (15:20) 6.39 (15:10) 1.4 0 0 0 1.4
04-04-2019 17.5 (17:40) 5.1 (00:00) 11.3 11.67 (10:20) 6.11 (11:30) 0 0 0 0 0
03-04-2019 15.9 (14:20) 7.4 (07:40) 11.6 15.28 (22:30) 8.33 (21:40) 0 0 0 0 0
02-04-2019 22.4 (17:40) 5.2 (00:00) 13.8 7.5 (14:10) 3.89 (15:40) 0 0 0 0 0
01-04-2019 16.6 (17:00) 9.5 (00:00) 13.1 5.28 (18:10) 3.33 (19:30) 1 0.4 0.6 0 0
31-03-2019 14.8 (16:40) 4.1 (00:00) 9.5 5 (18:30) 3.33 (18:40) 2 0 0 0.2 1.8
30-03-2019 17.5 (13:50) 3.5 (00:00) 10.5 10.28 (15:10) 5.28 (14:40) 0 0 0 0 0
29-03-2019 18.2 (14:30) 3.2 (00:00) 10.7 10.83 (13:20) 5.28 (13:30) 0 0 0 0 0
28-03-2019 20.2 (14:20) 3.4 (00:00) 11.8 10.83 (16:10) 6.11 (17:20) 0 0 0 0 0
27-03-2019 21.2 (14:40) 2.8 (00:00) 12 9.17 (16:40) 5.28 (16:50) 0 0 0 0 0
26-03-2019 21.4 (16:20) 6.7 (00:00) 14 13.89 (17:10) 8.06 (17:10) 0 0 0 0 0
25-03-2019 22.1 (16:30) 5.6 (00:00) 13.9 11.11 (22:50) 5.83 (23:10) 0 0 0 0 0
24-03-2019 24.6 (14:30) 3.1 (00:00) 13.9 8.89 (15:20) 5.28 (16:40) 0 0 0 0 0
23-03-2019 24.1 (15:00) 1.1 (00:00) 12.6 7.5 (16:30) 4.72 (16:40) 0 0 0 0 0
22-03-2019 21.5 (15:40) 1.1 (00:00) 11.3 10.83 (18:10) 5 (17:30) 0 0 0 0 0
21-03-2019 18.4 (14:50) 3.6 (00:00) 11 8.61 (16:20) 5.28 (16:50) 0 0 0 0 0
20-03-2019 17.3 (14:50) 4.3 (00:00) 10.8 8.61 (10:40) 5.28 (17:10) 0 0 0 0 0
19-03-2019 16.8 (14:30) 9 (00:00) 12.9 10.28 (03:00) 6.11 (03:00) 0 0 0 0 0

Gráficas

Temp. máximas Temp. mínimas Temp. medias Precipitaciones Rachas de viento máximas Velocidades máximas media en intervalos de 10 minutos

Datos horarios

Fecha y hora oficial Temperatura (ºC) Velocidad del viento (km/h) Dirección del viento Racha (km/h) Dirección de racha Precipitación (mm) Presión (hPa) Tendencia (hPa) Humedad (%)
2019-04-17 23:00:00 14 13 Este 26 Sudeste 0 -- -- 83
2019-04-17 22:00:00 13.7 12 Sudeste 23 Este 0 -- -- 84
2019-04-17 21:00:00 13.7 11 Sudeste 24 Sudeste 0 -- -- 84
2019-04-17 20:00:00 14.2 13 Sudeste 27 Este 0 -- -- 79
2019-04-17 19:00:00 14.7 16 Sudeste 31 Este 0 -- -- 74
2019-04-17 18:00:00 15.3 13 Este 31 Sudeste 0 -- -- 72
2019-04-17 17:00:00 15.4 17 Sudeste 35 Sudeste 0 -- -- 74
2019-04-17 16:00:00 15.4 16 Sudeste 33 Sudeste 0 -- -- 73
2019-04-17 15:00:00 15.7 15 Sudeste 30 Sudeste 0 -- -- 72
2019-04-17 14:00:00 16 17 Sudeste 30 Sudeste 0 -- -- 71
2019-04-17 13:00:00 14.5 13 Sudeste 28 Sudeste 0 -- -- 77
2019-04-17 12:00:00 14.4 13 Sudeste 25 Este 0 -- -- 77
2019-04-17 11:00:00 14 12 Sudeste 25 Sudeste 0 -- -- 81
2019-04-17 10:00:00 13.2 11 Sudeste 23 Este 0 -- -- 85
2019-04-17 09:00:00 12.8 7 Sudeste 17 Sudeste 0 -- -- 87
2019-04-17 08:00:00 12.3 8 Sudeste 17 Sudeste 0 -- -- 91
2019-04-17 07:00:00 11.9 11 Sudeste 17 Sudeste 0 -- -- 94
2019-04-17 06:00:00 11.5 8 Sudeste 16 Sudeste 0 -- -- 95
2019-04-17 05:00:00 10.3 9 Sudeste 12 Sudeste 0 -- -- 96
2019-04-17 04:00:00 10.4 5 Sur 8 Sudeste 0 -- -- 92
2019-04-17 03:00:00 12 5 Sudeste 15 Sudeste 0 -- -- 91
2019-04-17 02:00:00 12.4 8 Sudeste 16 Este 0 -- -- 91
2019-04-17 01:00:00 12.6 9 Sudeste 13 Sudeste 0 -- -- 91
2019-04-17 00:00:00 12.8 7 Sudeste 19 Sudeste 0 -- -- 88
2019-04-16 23:00:00 13 8 Sudeste 24 Sudeste 0 -- -- 87
2019-04-16 22:00:00 12.9 12 Sudeste 27 Sudeste 0 -- -- 86
2019-04-16 21:00:00 13.6 16 Sudeste 28 Sudeste 0 -- -- 79
2019-04-16 20:00:00 15.1 17 Sudeste 34 Sudeste 0 -- -- 64
2019-04-16 19:00:00 16 21 Sudeste 36 Sudeste 0 -- -- 59
2019-04-16 18:00:00 17.1 17 Sudeste 40 Sudeste 0 -- -- 53
2019-04-16 17:00:00 18 23 Sudeste 40 Sudeste 0 -- -- 55
2019-04-16 16:00:00 19.8 20 Sudeste 30 Sudeste 0 -- -- 50
2019-04-16 15:00:00 21.5 18 Sudeste 28 Sudeste 0 -- -- 49
2019-04-16 14:00:00 20.3 9 Norte 19 Noroeste 0 -- -- 48
2019-04-16 13:00:00 19.5 8 Norte 21 Norte 0 -- -- 50
2019-04-16 12:00:00 17.7 10 Norte 24 Noroeste 0 -- -- 55
2019-04-16 11:00:00 16 14 Norte 20 Norte 0 -- -- 60
2019-04-16 10:00:00 14.2 7 Oeste 13 Oeste 0 -- -- 68
2019-04-16 09:00:00 12.4 6 Noroeste 14 Noroeste 0 -- -- 78
2019-04-16 08:00:00 12.2 9 Oeste 22 Oeste 0 -- -- 79
2019-04-16 07:00:00 11.7 5 Oeste 26 Noroeste 0 -- -- 87
2019-04-16 06:00:00 12.1 9 Noroeste 13 Oeste 0 -- -- 83
2019-04-16 05:00:00 12.5 3 Sur 12 Sur 0 -- -- 81
2019-04-16 04:00:00 12.7 9 Sur 18 Sudeste 0 -- -- 78
2019-04-16 03:00:00 12.5 9 Sur 19 Sudeste 0 -- -- 77
2019-04-16 02:00:00 12.8 12 Sur 26 Sudeste 0 -- -- 76
2019-04-16 01:00:00 12.8 15 Sudeste 24 Sudeste 0 -- -- 77
2019-04-16 00:00:00 12.9 9 Sudeste 26 Sudeste 0 -- -- 75
2019-04-15 23:00:00 12.8 16 Sudeste 30 Sudeste 0 -- -- 74
2019-04-15 22:00:00 12.9 14 Sudeste 27 Sudeste 0 -- -- 78
2019-04-15 21:00:00 13.1 17 Sudeste 33 Sudeste 0 -- -- 79
2019-04-15 20:00:00 13.4 15 Sudeste 32 Sudeste 0 -- -- 76
2019-04-15 19:00:00 14.2 16 Sudeste 38 Sudeste 0 -- -- 72
2019-04-15 18:00:00 14.6 19 Sudeste 41 Este 0 -- -- 69
2019-04-15 17:00:00 16 21 Sudeste 41 Sudeste 0 -- -- 61
2019-04-15 16:00:00 16.7 18 Sudeste 40 Este 0 -- -- 59
2019-04-15 15:00:00 16.3 18 Sudeste 37 Sudeste 0 -- -- 63
2019-04-15 14:00:00 15.2 17 Sudeste 35 Este 0 -- -- 66
2019-04-15 13:00:00 15.8 19 Sudeste 30 Sudeste 0 -- -- 62
2019-04-15 12:00:00 15 17 Sudeste 32 Sudeste 0 -- -- 71
2019-04-15 11:00:00 15.9 19 Sudeste 34 Este 0 -- -- 68
2019-04-15 10:00:00 15.6 18 Sudeste 32 Este 0 -- -- 67
2019-04-15 09:00:00 15 15 Sudeste 24 Sudeste 0 -- -- 64
2019-04-15 08:00:00 12.7 9 Sudeste 18 Sur 0 -- -- 72
2019-04-15 07:00:00 12.7 11 Sur 21 Sur 0 -- -- 71
2019-04-15 06:00:00 10.6 10 Sur 16 Sur 0 -- -- 86
2019-04-15 05:00:00 10.1 3 Sudoeste 6 Este 0 -- -- 92
2019-04-15 04:00:00 11.5 2 Norte 14 Sudeste 0 -- -- 90
2019-04-15 03:00:00 12.6 7 Sur 21 Sur 0 -- -- 88
2019-04-15 02:00:00 12.3 13 Sudeste 21 Sudeste 0 -- -- 92
2019-04-15 01:00:00 12.7 8 Sudeste 19 Sudeste 0 -- -- 89
2019-04-15 00:00:00 13.1 9 Sudeste 19 Sur 0 -- -- 88
2019-04-14 23:00:00 13.1 10 Sudeste 23 Sudeste 0 -- -- 89
2019-04-14 22:00:00 13.2 15 Sudeste 30 Sudeste 0 -- -- 88
2019-04-14 21:00:00 13.8 18 Sudeste 36 Sudeste 0 -- -- 86
2019-04-14 20:00:00 15.2 26 Sudeste 40 Sudeste 0 -- -- 79
2019-04-14 19:00:00 17.7 23 Sudeste 40 Sudeste 0 -- -- 67
2019-04-14 18:00:00 19.8 20 Sudeste 42 Sudeste 0 -- -- 57
2019-04-14 17:00:00 21.9 18 Sudeste 36 Sudoeste 0 -- -- 50
2019-04-14 16:00:00 24.9 19 Noroeste 48 Sudoeste 0 -- -- 33
2019-04-14 15:00:00 26 20 Oeste 40 Oeste 0 -- -- 31
2019-04-14 14:00:00 25.5 15 Oeste 39 Oeste 0 -- -- 31
2019-04-14 13:00:00 24.3 17 Oeste 40 Oeste 0 -- -- 32
2019-04-14 12:00:00 21.7 17 Noroeste 35 Oeste 0 -- -- 31
2019-04-14 11:00:00 11.6 4 Norte 13 Noroeste 0 -- -- 51
2019-04-14 10:00:00 7.1 0 Calma 9 Noroeste 0 -- -- 72
2019-04-14 09:00:00 4.8 0 Calma 3 Noroeste 0 -- -- 85
2019-04-14 08:00:00 4.9 3 Noroeste 8 Noroeste 0 -- -- 79
2019-04-14 07:00:00 3.4 0 Calma 5 Oeste 0 -- -- 82
2019-04-14 06:00:00 3.4 0 Calma 2 Noroeste 0 -- -- 83
2019-04-14 05:00:00 4.1 0 Calma 5 Noroeste 0 -- -- 81
2019-04-14 04:00:00 4.3 0 Calma 4 Sudoeste 0 -- -- 80
2019-04-14 03:00:00 5.5 3 Oeste 5 Oeste 0 -- -- 78
2019-04-14 02:00:00 5.7 0 Calma 4 Sudoeste 0 -- -- 79
2019-04-14 01:00:00 7 2 Sudoeste 5 Nordeste 0 -- -- 76
2019-04-14 00:00:00 9.1 5 Oeste 9 Oeste 0 -- -- 67
2019-04-13 23:00:00 10.2 0 Calma 5 Sudeste 0 -- -- 62
2019-04-13 22:00:00 13.6 2 Sur 14 Sudeste 0 -- -- 51
2019-04-13 21:00:00 16.9 9 Sur 16 Sudeste 0 -- -- 43
2019-04-13 20:00:00 21.7 5 Sudoeste 28 Noroeste 0 -- -- 21
2019-04-13 19:00:00 23.2 12 Noroeste 28 Oeste 0 -- -- 17
2019-04-13 18:00:00 23.5 17 Noroeste 27 Noroeste 0 -- -- 17
2019-04-13 17:00:00 23.7 14 Noroeste 28 Noroeste 0 -- -- 15
2019-04-13 16:00:00 23.2 13 Norte 25 Norte 0 -- -- 19
2019-04-13 15:00:00 22 11 Noroeste 28 Noroeste 0 -- -- 22
2019-04-13 14:00:00 20.9 16 Noroeste 31 Noroeste 0 -- -- 24
2019-04-13 13:00:00 19.3 16 Noroeste 32 Noroeste 0 -- -- 29
2019-04-13 12:00:00 17.9 15 Noroeste 30 Oeste 0 -- -- 32
2019-04-13 11:00:00 15.7 15 Noroeste 33 Noroeste 0 -- -- 40
2019-04-13 10:00:00 13.7 12 Noroeste 25 Norte 0 -- -- 45
2019-04-13 09:00:00 9.9 12 Noroeste 20 Noroeste 0 -- -- 60
2019-04-13 08:00:00 7.3 7 Noroeste 14 Noroeste 0 -- -- 70
2019-04-13 07:00:00 7.4 6 Noroeste 12 Noroeste 0 -- -- 66
2019-04-13 06:00:00 8.3 4 Oeste 11 Noroeste 0 -- -- 62
2019-04-13 05:00:00 9.7 5 Noroeste 16 Norte 0 -- -- 56
2019-04-13 04:00:00 11.5 7 Noroeste 18 Norte 0 -- -- 49
2019-04-13 03:00:00 11.7 7 Norte 22 Noroeste 0 -- -- 50
2019-04-13 02:00:00 14.1 13 Oeste 28 Sudoeste 0 -- -- 43
2019-04-13 01:00:00 12 3 Noroeste 9 Noroeste 0 -- -- 52
2019-04-13 00:00:00 15.3 3 Noroeste 29 Oeste 0 -- -- 43
2019-04-12 23:00:00 16.1 9 Oeste 32 Oeste 0 -- -- 38
2019-04-12 22:00:00 16.9 10 Oeste 28 Sudoeste 0 -- -- 34
2019-04-12 21:00:00 17.5 8 Oeste 26 Sudoeste 0 -- -- 34
2019-04-12 20:00:00 19.3 10 Oeste 31 Oeste 0 -- -- 31
2019-04-12 19:00:00 20.9 14 Oeste 33 Oeste 0 -- -- 30
2019-04-12 18:00:00 21.1 16 Oeste 33 Noroeste 0 -- -- 29
2019-04-12 17:00:00 21 17 Noroeste 35 Oeste 0 -- -- 29
2019-04-12 16:00:00 20.5 19 Noroeste 37 Noroeste 0 -- -- 32
2019-04-12 15:00:00 20.1 15 Oeste 41 Sudoeste 0 -- -- 37
2019-04-12 14:00:00 19.4 16 Oeste 39 Sudoeste 0 -- -- 40
2019-04-12 13:00:00 17.1 18 Oeste 35 Oeste 0 -- -- 46
2019-04-12 12:00:00 15.3 19 Oeste 37 Oeste 0 -- -- 52
2019-04-12 11:00:00 15 12 Oeste 30 Noroeste 0 -- -- 54
2019-04-12 10:00:00 12.7 17 Oeste 39 Oeste 0 -- -- 59
2019-04-12 09:00:00 11.6 21 Noroeste 36 Oeste 0 -- -- 62
2019-04-12 08:00:00 10.9 18 Oeste 35 Oeste 0 -- -- 64
2019-04-12 07:00:00 10.8 21 Oeste 40 Oeste 0 -- -- 64
2019-04-12 06:00:00 10.7 17 Oeste 35 Oeste 0 -- -- 64
2019-04-12 05:00:00 10.8 15 Oeste 32 Oeste 0 -- -- 64
2019-04-12 04:00:00 10.9 12 Oeste 42 Oeste 0 -- -- 63
2019-04-12 03:00:00 11.4 26 Oeste 43 Oeste 0 -- -- 58
2019-04-12 02:00:00 11.8 18 Oeste 45 Oeste 0 -- -- 56
2019-04-12 01:00:00 12.2 20 Oeste 47 Oeste 0 -- -- 59
2019-04-12 00:00:00 12.9 26 Oeste 47 Oeste 0 -- -- 58
2019-04-11 23:00:00 13.8 18 Oeste 57 Oeste 0 -- -- 54
2019-04-11 22:00:00 14.9 30 Oeste 55 Sudoeste 0 -- -- 49
2019-04-11 21:00:00 15.4 30 Oeste 53 Sudoeste 0 -- -- 50
2019-04-11 20:00:00 17 27 Oeste 57 Sudoeste 0 -- -- 45
2019-04-11 19:00:00 18.9 28 Oeste 53 Oeste 0 -- -- 39
2019-04-11 18:00:00 19.6 23 Oeste 49 Oeste 0 -- -- 38
2019-04-11 17:00:00 19.8 23 Oeste 41 Oeste 0 -- -- 39
2019-04-11 16:00:00 19.9 17 Oeste 41 Oeste 0 -- -- 37
2019-04-11 15:00:00 18.8 23 Oeste 45 Noroeste 0 -- -- 39
2019-04-11 14:00:00 17.9 19 Oeste 39 Noroeste 0 -- -- 41
2019-04-11 13:00:00 16.4 23 Oeste 48 Oeste 0 -- -- 46
2019-04-11 12:00:00 15.4 25 Oeste 53 Oeste 0 -- -- 49
2019-04-11 11:00:00 14.5 19 Oeste 46 Sudoeste 0 -- -- 52
2019-04-11 10:00:00 12.7 21 Oeste 48 Oeste 0 -- -- 59
2019-04-11 09:00:00 11.3 25 Oeste 49 Oeste 0 -- -- 64
2019-04-11 08:00:00 10.2 18 Oeste 42 Oeste 0 -- -- 67
2019-04-11 07:00:00 9.8 12 Oeste 39 Sudoeste 0 -- -- 68
2019-04-11 06:00:00 10 10 Noroeste 41 Sudoeste 0 -- -- 67
2019-04-11 05:00:00 10.6 19 Oeste 39 Oeste 0 -- -- 65
2019-04-11 04:00:00 11 19 Oeste 40 Oeste 0 -- -- 63
2019-04-11 03:00:00 11.5 19 Sudoeste 41 Oeste 0 -- -- 62
2019-04-11 02:00:00 12.2 24 Sudoeste 43 Sudoeste 0 -- -- 61
2019-04-11 01:00:00 13.1 18 Oeste 37 Oeste 0 -- -- 57
2019-04-11 00:00:00 13.5 13 Oeste 32 Sudoeste 0 -- -- 57
2019-04-10 23:00:00 9.7 2 Sudeste 8 Noroeste 0 -- -- 87
2019-04-10 22:00:00 10.2 3 Sudoeste 12 Oeste 0 -- -- 89
2019-04-10 21:00:00 11.4 4 Sur 16 Oeste 0.4 -- -- 87
2019-04-10 20:00:00 13.7 12 Noroeste 40 Oeste 1.6 -- -- 69
2019-04-10 19:00:00 20.1 12 Oeste 26 Oeste 0 -- -- 35
2019-04-10 18:00:00 20.1 10 Oeste 31 Oeste 0 -- -- 34
2019-04-10 17:00:00 19.2 20 Oeste 37 Sudoeste 0 -- -- 37
2019-04-10 16:00:00 19.5 15 Oeste 46 Sudoeste 0 -- -- 37
2019-04-10 15:00:00 18.8 15 Oeste 42 Oeste 0 -- -- 40
2019-04-10 14:00:00 18 19 Oeste 44 Sudoeste 0 -- -- 42
2019-04-10 13:00:00 17.1 19 Oeste 42 Oeste 0 -- -- 45
2019-04-10 12:00:00 16.1 23 Oeste 44 Noroeste 0 -- -- 47
2019-04-10 11:00:00 15.3 23 Oeste 49 Oeste 0 -- -- 48
2019-04-10 10:00:00 13.6 22 Noroeste 45 Noroeste 0 -- -- 54
2019-04-10 09:00:00 9 10 Noroeste 18 Noroeste 0 -- -- 76
2019-04-10 08:00:00 9.2 9 Noroeste 21 Noroeste 0 -- -- 74
2019-04-10 07:00:00 10.2 11 Noroeste 21 Noroeste 0 -- -- 69
2019-04-10 06:00:00 10.1 11 Noroeste 22 Noroeste 0 -- -- 71
2019-04-10 05:00:00 10.6 11 Noroeste 19 Norte 0 -- -- 69
2019-04-10 04:00:00 11.7 9 Noroeste 28 Oeste 0 -- -- 65
2019-04-10 03:00:00 12.5 13 Oeste 27 Oeste 0 -- -- 61
2019-04-10 02:00:00 12.9 10 Oeste 23 Sudoeste 0 -- -- 59
2019-04-10 01:00:00 12.9 7 Noroeste 25 Noroeste 0 -- -- 57
2019-04-10 00:00:00 13.3 15 Oeste 31 Oeste 0 -- -- 55
2019-04-09 23:00:00 13.3 8 Noroeste 29 Oeste 0 -- -- 55
2019-04-09 22:00:00 14.4 17 Oeste 40 Sudoeste 0 -- -- 50
2019-04-09 21:00:00 15.6 13 Oeste 28 Oeste 0 -- -- 45
2019-04-09 20:00:00 16.9 9 Sudoeste 30 Oeste 0 -- -- 38
2019-04-09 19:00:00 18.1 13 Sudoeste 22 Sudoeste 0 -- -- 36
2019-04-09 18:00:00 19.3 16 Sudoeste 38 Sudoeste 0 -- -- 35
2019-04-09 17:00:00 20.6 15 Oeste 32 Sudoeste 0 -- -- 33
2019-04-09 16:00:00 20.7 14 Oeste 33 Sudoeste 0 -- -- 31
2019-04-09 15:00:00 18.6 15 Noroeste 37 Noroeste 0 -- -- 35
2019-04-09 14:00:00 18.7 22 Noroeste 40 Noroeste 0 -- -- 36
2019-04-09 13:00:00 18.4 18 Noroeste 40 Oeste 0 -- -- 37
2019-04-09 12:00:00 17 23 Noroeste 46 Noroeste 0 -- -- 44
2019-04-09 11:00:00 16.2 15 Oeste 48 Oeste 0 -- -- 49
2019-04-09 10:00:00 14.2 20 Oeste 40 Oeste 0 -- -- 56
2019-04-09 09:00:00 11.9 7 Norte 19 Oeste 0 -- -- 72
2019-04-09 08:00:00 11 11 Noroeste 19 Noroeste 0 -- -- 73
2019-04-09 07:00:00 10.8 9 Noroeste 26 Oeste 0 -- -- 72
2019-04-09 06:00:00 9.9 10 Noroeste 25 Noroeste 0 -- -- 81
2019-04-09 05:00:00 8.8 7 Noroeste 15 Noroeste 0 -- -- 96
2019-04-09 04:00:00 9.1 8 Noroeste 11 Noroeste 0 -- -- 94
2019-04-09 03:00:00 9.6 2 Sur 12 Norte 0 -- -- 91
2019-04-09 02:00:00 9.2 8 Oeste 10 Oeste 0 -- -- 94
2019-04-09 01:00:00 9.2 3 Oeste 5 Oeste 0 -- -- 88
2019-04-09 00:00:00 11.4 0 Calma 8 Oeste 0 -- -- 80
2019-04-08 23:00:00 13.2 5 Sudoeste 17 Noroeste 0 -- -- 75
2019-04-08 22:00:00 13.8 10 Oeste 15 Sudoeste 0 -- -- 75
2019-04-08 21:00:00 15 2 Sudeste 17 Oeste 0 -- -- 64
2019-04-08 20:00:00 17.6 11 Oeste 23 Oeste 0 -- -- 55
2019-04-08 19:00:00 19.6 8 Sudoeste 24 Sur 0 -- -- 52
2019-04-08 18:00:00 20.7 9 Oeste 26 Oeste 0 -- -- 43
2019-04-08 17:00:00 20.6 14 Oeste 26 Oeste 0 -- -- 45
2019-04-08 16:00:00 20.9 14 Sudoeste 39 Oeste 0 -- -- 45
2019-04-08 15:00:00 20.5 22 Noroeste 46 Noroeste 0 -- -- 45
2019-04-08 14:00:00 18.9 17 Noroeste 38 Noroeste 0 -- -- 49
2019-04-08 13:00:00 17.6 19 Noroeste 40 Noroeste 0 -- -- 53
2019-04-08 12:00:00 15.9 6 Este 14 Nordeste 0 -- -- 58
2019-04-08 11:00:00 13.7 4 Norte 14 Norte 0 -- -- 62
2019-04-08 10:00:00 11.4 5 Norte 9 Norte 0 -- -- 69
2019-04-08 09:00:00 8 2 Nordeste 4 Noroeste 0 -- -- 81
2019-04-08 08:00:00 6.9 0 Calma 5 Oeste 0 -- -- 85
2019-04-08 07:00:00 6.4 4 Noroeste 8 Oeste 0 -- -- 87
2019-04-08 06:00:00 4.9 0 Calma 3 Norte 0 -- -- 95
2019-04-08 05:00:00 4.6 2 Noroeste 4 Noroeste 0 -- -- 94
2019-04-08 04:00:00 4.6 0 Calma 3 Oeste 0 -- -- 91
2019-04-08 03:00:00 5.8 4 Oeste 6 Oeste 0 -- -- 89
2019-04-08 02:00:00 6.4 3 Noroeste 6 Sur 0 -- -- 86
2019-04-08 01:00:00 6.8 2 Sudeste 9 Sur 0 -- -- 84
2019-04-08 00:00:00 8.2 4 Sur 9 Oeste 0 -- -- 74
2019-04-07 23:00:00 11.5 7 Sur 22 Sudeste 0 -- -- 64
2019-04-07 22:00:00 12 16 Sur 28 Sudeste 0 -- -- 64
2019-04-07 21:00:00 13.7 6 Oeste 18 Oeste 0 -- -- 47
2019-04-07 20:00:00 16.1 10 Noroeste 24 Noroeste 0 -- -- 40
2019-04-07 19:00:00 17.4 17 Oeste 33 Noroeste 0 -- -- 37
2019-04-07 18:00:00 17.8 15 Oeste 40 Noroeste 0 -- -- 37
2019-04-07 17:00:00 17.3 23 Noroeste 50 Noroeste 0 -- -- 37
2019-04-07 16:00:00 17 24 Noroeste 44 Oeste 0 -- -- 38
2019-04-07 15:00:00 16.4 26 Noroeste 45 Noroeste 0 -- -- 43
2019-04-07 14:00:00 15.9 20 Noroeste 44 Noroeste 0 -- -- 46
2019-04-07 13:00:00 14.7 24 Noroeste 46 Noroeste 0 -- -- 49
2019-04-07 12:00:00 12.8 24 Noroeste 42 Noroeste 0 -- -- 58
2019-04-07 11:00:00 11.9 16 Noroeste 42 Oeste 0 -- -- 64
2019-04-07 10:00:00 9.8 14 Oeste 31 Oeste 0 -- -- 71
2019-04-07 09:00:00 9.3 17 Oeste 38 Oeste 0 -- -- 69
2019-04-07 08:00:00 9.8 16 Noroeste 34 Noroeste 0 -- -- 65
2019-04-07 07:00:00 9.3 13 Oeste 30 Oeste 0 -- -- 70
2019-04-07 06:00:00 7.1 10 Noroeste 14 Oeste 0 -- -- 88
2019-04-07 05:00:00 4.8 5 Noroeste 11 Noroeste 0 -- -- 97
2019-04-07 04:00:00 5.2 2 Norte 11 Noroeste 0 -- -- 96
2019-04-07 03:00:00 5.6 0 Calma 9 Norte 0 -- -- 96
2019-04-07 02:00:00 5.4 7 Oeste 13 Noroeste 0 -- -- 97
2019-04-07 01:00:00 5.1 4 Noroeste 10 Oeste 0 -- -- 96
2019-04-07 00:00:00 5 3 Noroeste 6 Oeste 0 -- -- 93
2019-04-06 23:00:00 6.2 5 Sudoeste 10 Sur 0 -- -- 94
2019-04-06 22:00:00 7 3 Este 14 Oeste 0 -- -- 90
2019-04-06 21:00:00 8.2 6 Oeste 9 Oeste 0 -- -- 89
2019-04-06 20:00:00 10.1 2 Norte 31 Sudoeste 1 -- -- 82
2019-04-06 19:00:00 14.5 8 Este 28 Este 0 -- -- 50
2019-04-06 18:00:00 16 5 Norte 19 Noroeste 0 -- -- 35
2019-04-06 17:00:00 17.3 12 Noroeste 30 Sudoeste 0 -- -- 31
2019-04-06 16:00:00 17.5 14 Sudoeste 31 Oeste 0 -- -- 34
2019-04-06 15:00:00 16.4 12 Oeste 24 Oeste 0 -- -- 36
2019-04-06 14:00:00 16.9 13 Oeste 31 Oeste 0 -- -- 36
2019-04-06 13:00:00 15.7 14 Oeste 31 Sudoeste 0 -- -- 40
2019-04-06 12:00:00 14.2 14 Oeste 37 Oeste 0 -- -- 46
2019-04-06 11:00:00 13.2 15 Oeste 27 Oeste 0 -- -- 50
2019-04-06 10:00:00 9.7 6 Norte 22 Oeste 0 -- -- 73
2019-04-06 09:00:00 8.5 5 Oeste 13 Oeste 0 -- -- 70
2019-04-06 08:00:00 5.1 5 Sudoeste 13 Noroeste 0 -- -- 90
2019-04-06 07:00:00 6.7 10 Noroeste 17 Noroeste 0 -- -- 85
2019-04-06 06:00:00 6.5 10 Noroeste 20 Noroeste 0 -- -- 86
2019-04-06 05:00:00 7.1 13 Noroeste 22 Noroeste 0 -- -- 81
2019-04-06 04:00:00 7.9 14 Noroeste 30 Noroeste 0 -- -- 77
2019-04-06 03:00:00 8.9 15 Noroeste 36 Noroeste 0 -- -- 71
2019-04-06 02:00:00 7.9 6 Norte 26 Oeste 0 -- -- 85
2019-04-06 01:00:00 9.8 10 Sudoeste 23 Sudoeste 0 -- -- 87
2019-04-06 00:00:00 9.9 3 Este 13 Sudeste 0 -- -- 90
2019-04-05 23:00:00 10 6 Sudeste 12 Sudeste 0 -- -- 91
2019-04-05 22:00:00 10.4 5 Oeste 10 Sudoeste 0.2 -- -- 95
2019-04-05 21:00:00 10.7 0 Calma 6 Sudeste 0 -- -- 93
2019-04-05 20:00:00 11.2 7 Oeste 19 Sudoeste 1 -- -- 89
2019-04-05 19:00:00 13.6 13 Sudeste 31 Sudeste 0.2 -- -- 71
2019-04-05 18:00:00 15.4 21 Sudeste 38 Sudeste 0 -- -- 51
2019-04-05 17:00:00 15.9 19 Sudeste 38 Este 0 -- -- 53
2019-04-05 16:00:00 16.3 19 Sudeste 40 Sudeste 0 -- -- 52
2019-04-05 15:00:00 16 18 Sudeste 30 Sudeste 0 -- -- 55
2019-04-05 14:00:00 16.7 15 Este 27 Este 0 -- -- 53
2019-04-05 13:00:00 16.9 5 Este 22 Sudeste 0 -- -- 51
2019-04-05 12:00:00 16.4 6 Sudeste 13 Sur 0 -- -- 61
2019-04-05 11:00:00 13 2 Norte 8 Noroeste 0 -- -- 80
2019-04-05 10:00:00 11.9 0 Calma 8 Sudoeste 0 -- -- 85
2019-04-05 09:00:00 11.7 6 Sudeste 15 Sudeste 0 -- -- 80
2019-04-05 08:00:00 10.8 10 Sudeste 17 Sudeste 0 -- -- 80
2019-04-05 07:00:00 10 8 Sudeste 16 Sudeste 0 -- -- 79
2019-04-05 06:00:00 10.4 10 Sudeste 25 Este 0 -- -- 76
2019-04-05 05:00:00 11.3 15 Sudeste 29 Este 0 -- -- 73
2019-04-05 04:00:00 11.1 11 Este 25 Este 0 -- -- 73
2019-04-05 03:00:00 10.7 12 Este 27 Sudeste 0 -- -- 72
2019-04-05 02:00:00 10.4 14 Sudeste 24 Sudeste 0 -- -- 69
2019-04-05 01:00:00 9.1 6 Sur 21 Sudeste 0 -- -- 72
2019-04-05 00:00:00 8.3 7 Sur 15 Sudeste 0 -- -- 73
2019-04-04 23:00:00 9.8 9 Sudeste 18 Sudeste 0 -- -- 62
2019-04-04 22:00:00 9.7 6 Sudeste 23 Sur 0 -- -- 57
2019-04-04 21:00:00 11.1 12 Sudeste 27 Sudeste 0 -- -- 51
2019-04-04 20:00:00 13.5 14 Este 25 Este 0 -- -- 43
2019-04-04 19:00:00 16.4 8 Nordeste 15 Nordeste 0 -- -- 37
2019-04-04 18:00:00 16.6 10 Norte 22 Noroeste 0 -- -- 27
2019-04-04 17:00:00 16.4 12 Noroeste 33 Noroeste 0 -- -- 30
2019-04-04 16:00:00 16 11 Oeste 34 Norte 0 -- -- 31
2019-04-04 15:00:00 14.4 15 Noroeste 38 Oeste 0 -- -- 35
2019-04-04 14:00:00 13.9 19 Oeste 37 Oeste 0 -- -- 35
2019-04-04 13:00:00 12.7 19 Oeste 39 Noroeste 0 -- -- 38
2019-04-04 12:00:00 12 16 Noroeste 39 Oeste 0 -- -- 41
2019-04-04 11:00:00 10.4 19 Oeste 42 Oeste 0 -- -- 44
2019-04-04 10:00:00 9.2 13 Oeste 36 Oeste 0 -- -- 50
2019-04-04 09:00:00 7.2 18 Oeste 37 Sudoeste 0 -- -- 56
2019-04-04 08:00:00 5.5 13 Oeste 26 Oeste 0 -- -- 61
2019-04-04 07:00:00 5.5 13 Oeste 26 Sudoeste 0 -- -- 61
2019-04-04 06:00:00 5.7 14 Oeste 25 Sudoeste 0 -- -- 61
2019-04-04 05:00:00 5.5 10 Sudoeste 26 Sudoeste 0 -- -- 63
2019-04-04 04:00:00 5.6 6 Oeste 14 Noroeste 0 -- -- 64
2019-04-04 03:00:00 6.1 7 Oeste 22 Oeste 0 -- -- 65
2019-04-04 02:00:00 6.2 7 Oeste 14 Oeste 0 -- -- 70
2019-04-04 01:00:00 7.3 8 Noroeste 30 Sudoeste 0 -- -- 67
2019-04-04 00:00:00 8.7 17 Oeste 47 Oeste 0 -- -- 60
2019-04-03 23:00:00 8.6 28 Oeste 55 Oeste 0 -- -- 63
2019-04-03 22:00:00 9.4 25 Oeste 54 Oeste 0 -- -- 64
2019-04-03 21:00:00 9.7 23 Oeste 39 Oeste 0 -- -- 66
2019-04-03 20:00:00 10.3 15 Noroeste 36 Oeste 0 -- -- 63
2019-04-03 19:00:00 11 17 Noroeste 33 Noroeste 0 -- -- 60
2019-04-03 18:00:00 11.4 18 Noroeste 32 Oeste 0 -- -- 65
2019-04-03 17:00:00 12.8 19 Noroeste 35 Noroeste 0 -- -- 58
2019-04-03 16:00:00 14.6 15 Noroeste 28 Noroeste 0 -- -- 61
2019-04-03 15:00:00 15.1 13 Noroeste 26 Oeste 0 -- -- 57
2019-04-03 14:00:00 15.3 9 Norte 20 Noroeste 0 -- -- 60
2019-04-03 13:00:00 14.3 8 Norte 14 Norte 0 -- -- 68
2019-04-03 12:00:00 12.5 6 Norte 12 Norte 0 -- -- 77
2019-04-03 11:00:00 10.9 4 Noroeste 10 Oeste 0 -- -- 84
2019-04-03 10:00:00 9.8 0 Calma 6 Nordeste 0 -- -- 90
2019-04-03 09:00:00 9.6 2 Nordeste 8 Noroeste 0 -- -- 95
2019-04-03 08:00:00 7.9 2 Sudoeste 4 Sudoeste 0 -- -- 96
2019-04-03 07:00:00 8.1 3 Sur 9 Noroeste 0 -- -- 93
2019-04-03 06:00:00 8.9 5 Oeste 9 Oeste 0 -- -- 94
2019-04-03 05:00:00 8.7 2 Sudoeste 7 Noroeste 0 -- -- 91
2019-04-03 04:00:00 10.2 0 Calma 13 Oeste 0 -- -- 87
2019-04-03 03:00:00 11.5 8 Sur 21 Sur 0 -- -- 95
2019-04-03 02:00:00 8.1 3 Sudeste 5 Sur 0 -- -- 92
2019-04-03 01:00:00 8.8 0 Calma 6 Sur 0 -- -- 88
2019-04-03 00:00:00 9.8 0 Calma 5 Sudeste 0 -- -- 85
2019-04-02 23:00:00 11.6 2 Sudoeste 9 Sudeste 0 -- -- 79
2019-04-02 22:00:00 13 4 Sur 8 Sur 0 -- -- 78
2019-04-02 21:00:00 15.8 3 Sudoeste 13 Sudoeste 0 -- -- 67
2019-04-02 20:00:00 18 9 Sudoeste 14 Sudoeste 0 -- -- 59
2019-04-02 19:00:00 21 9 Sudoeste 17 Oeste 0 -- -- 48
2019-04-02 18:00:00 22.4 8 Sur 19 Sudoeste 0 -- -- 43
2019-04-02 17:00:00 20.9 11 Noroeste 20 Noroeste 0 -- -- 50
2019-04-02 16:00:00 21.1 9 Sudoeste 23 Sudoeste 0 -- -- 48
2019-04-02 15:00:00 20 9 Sudoeste 27 Oeste 0 -- -- 55
2019-04-02 14:00:00 19.7 9 Oeste 17 Oeste 0 -- -- 55
2019-04-02 13:00:00 17.4 3 Nordeste 11 Norte 0 -- -- 55
2019-04-02 12:00:00 15.5 6 Noroeste 10 Norte 0 -- -- 64
2019-04-02 11:00:00 11.6 3 Norte 8 Noroeste 0 -- -- 73
2019-04-02 10:00:00 9.4 4 Noroeste 8 Noroeste 0 -- -- 81
2019-04-02 09:00:00 8 0 Calma 5 Nordeste 0 -- -- 94
2019-04-02 08:00:00 5.8 0 Calma 4 Sur 0 -- -- 96
2019-04-02 07:00:00 5.5 0 Calma 4 Oeste 0 -- -- 93
2019-04-02 06:00:00 6.6 3 Sudeste 4 Sudeste 0 -- -- 90
2019-04-02 05:00:00 8.4 3 Sudoeste 4 Noroeste 0 -- -- 90
2019-04-02 04:00:00 8.4 2 Noroeste 5 Oeste 0 -- -- 88
2019-04-02 03:00:00 8.6 3 Sudoeste 10 Sudoeste 0 -- -- 84
2019-04-02 02:00:00 10 7 Sudoeste 11 Sudoeste 0 -- -- 77
2019-04-02 01:00:00 11.2 5 Sudoeste 10 Oeste 0 -- -- 74
2019-04-02 00:00:00 11.9 4 Sur 9 Sur 0 -- -- 72
2019-04-01 23:00:00 12.5 6 Sur 12 Sudeste 0 -- -- 71
2019-04-01 22:00:00 13.2 8 Sur 13 Sudeste 0 -- -- 73
2019-04-01 21:00:00 13.6 8 Sur 14 Sudeste 0 -- -- 69
2019-04-01 20:00:00 14.9 8 Sudeste 18 Este 0 -- -- 61
2019-04-01 19:00:00 16.4 10 Sudeste 19 Sudeste 0 -- -- 55
2019-04-01 18:00:00 16.4 9 Sudeste 18 Sudeste 0 -- -- 51
2019-04-01 17:00:00 16.6 6 Sudeste 15 Sudeste 0 -- -- 39
2019-04-01 16:00:00 16.1 4 Sudeste 8 Este 0 -- -- 62
2019-04-01 15:00:00 15.7 4 Noroeste 10 Noroeste 0 -- -- 63
2019-04-01 14:00:00 14.6 4 Norte 9 Norte 0 -- -- 76
2019-04-01 13:00:00 13.7 4 Norte 9 Norte 0 -- -- 79
2019-04-01 12:00:00 12.5 3 Nordeste 9 Norte 0 -- -- 87
2019-04-01 11:00:00 11.3 4 Norte 8 Norte 0.2 -- -- 94
2019-04-01 10:00:00 10.6 3 Norte 6 Norte 0.2 -- -- 96
2019-04-01 09:00:00 10 3 Noroeste 5 Oeste 0.2 -- -- 96
2019-04-01 08:00:00 9.9 4 Oeste 8 Oeste 0 -- -- 94
2019-04-01 07:00:00 9.8 5 Oeste 9 Sudoeste 0 -- -- 96
2019-04-01 06:00:00 9.7 0 Calma 6 Oeste 0 -- -- 97
2019-04-01 05:00:00 9.5 0 Calma 3 Sur 0.2 -- -- 96
2019-04-01 04:00:00 9.9 0 Calma 6 Noroeste 0 -- -- 96
2019-04-01 03:00:00 10.2 4 Oeste 7 Oeste 0.2 -- -- 97
2019-04-01 02:00:00 10.3 4 Oeste 5 Oeste 0 -- -- 96
2019-04-01 01:00:00 10.5 0 Calma 4 Nordeste 0 -- -- 95
2019-04-01 00:00:00 10.8 0 Calma 10 Sur 0 -- -- 94
2019-03-31 23:00:00 11.3 7 Sur 13 Sudeste 0.2 -- -- 92
2019-03-31 22:00:00 11.5 9 Sur 14 Sur 0 -- -- 91
2019-03-31 21:00:00 11.3 8 Sur 13 Sur 0 -- -- 89
2019-03-31 20:00:00 11.8 6 Sudeste 17 Sur 0.4 -- -- 91
2019-03-31 19:00:00 12.2 8 Sudeste 18 Sur 1.2 -- -- 91
2019-03-31 18:00:00 14 7 Sudeste 14 Sudeste 0.2 -- -- 81
2019-03-31 17:00:00 14.4 3 Noroeste 7 Noroeste 0 -- -- 69
2019-03-31 16:00:00 14.4 0 Calma 6 Norte 0 -- -- 68
2019-03-31 15:00:00 14 3 Norte 8 Norte 0 -- -- 69
2019-03-31 14:00:00 13 3 Noroeste 6 Noroeste 0 -- -- 69
2019-03-31 13:00:00 11.4 3 Norte 6 Nordeste 0 -- -- 76
2019-03-31 12:00:00 9.9 0 Calma 4 Nordeste 0 -- -- 78
2019-03-31 11:00:00 8.4 0 Calma 4 Nordeste 0 -- -- 84
2019-03-31 10:00:00 6.9 0 Calma 5 Oeste 0 -- -- 88
2019-03-31 09:00:00 6.2 0 Calma 4 Noroeste 0 -- -- 95
2019-03-31 08:00:00 5 0 Calma 4 Oeste 0 -- -- 97
2019-03-31 07:00:00 4.3 3 Sur 4 Sudeste 0 -- -- 96
2019-03-31 06:00:00 4.8 0 Calma 5 Sudoeste 0 -- -- 96
2019-03-31 05:00:00 4.6 0 Calma 4 Norte 0 -- -- 96
2019-03-31 03:00:00 5 0 Calma 9 Sur 0 -- -- 91
2019-03-31 01:00:00 6.9 8 Sudeste 10 Sudeste 0 -- -- 94
2019-03-31 00:00:00 7.1 0 Calma 8 Sur 0 -- -- 88
2019-03-30 23:00:00 8.2 3 Sudeste 6 Sudeste 0 -- -- 85
2019-03-30 22:00:00 10.3 5 Sudeste 12 Sudeste 0 -- -- 81
2019-03-30 21:00:00 11.6 8 Sudeste 21 Sudeste 0 -- -- 77
2019-03-30 20:00:00 12.1 12 Sudeste 23 Sudeste 0 -- -- 75
2019-03-30 19:00:00 12.8 13 Sudeste 27 Sudeste 0 -- -- 71
2019-03-30 18:00:00 14.4 18 Sudeste 31 Este 0 -- -- 61
2019-03-30 17:00:00 15.8 16 Sudeste 34 Sudeste 0 -- -- 55
2019-03-30 16:00:00 16.6 18 Sudeste 37 Sudeste 0 -- -- 52
2019-03-30 15:00:00 17 17 Sudeste 33 Sudeste 0 -- -- 52
2019-03-30 14:00:00 17.5 16 Sudeste 29 Sudeste 0 -- -- 48
2019-03-30 13:00:00 16.9 15 Sudeste 30 Este 0 -- -- 47
2019-03-30 12:00:00 16.8 14 Sudeste 24 Sudeste 0 -- -- 43
2019-03-30 11:00:00 16.3 13 Sudeste 23 Sudeste 0 -- -- 50
2019-03-30 10:00:00 12.6 4 Norte 8 Nordeste 0 -- -- 70
2019-03-30 09:00:00 8.5 3 Norte 8 Norte 0 -- -- 84
2019-03-30 08:00:00 6.9 0 Calma 5 Nordeste 0 -- -- 96
2019-03-30 07:00:00 3.7 0 Calma 3 Sur 0 -- -- 96
2019-03-30 06:00:00 4.4 0 Calma 3 Oeste 0 -- -- 95
2019-03-30 05:00:00 4.6 2 Sudeste 3 Sur 0 -- -- 95
2019-03-30 04:00:00 4.8 0 Calma 5 Oeste 0 -- -- 94
2019-03-30 03:00:00 5 2 Sudeste 3 Sudeste 0 -- -- 93
2019-03-30 02:00:00 5.5 0 Calma 6 Noroeste 0 -- -- 90
2019-03-30 01:00:00 6.6 3 Noroeste 6 Sudeste 0 -- -- 89
2019-03-30 00:00:00 7.4 3 Sudeste 9 Sudeste 0 -- -- 86
2019-03-29 23:00:00 9.4 5 Sudeste 12 Sudeste 0 -- -- 80
2019-03-29 22:00:00 10.2 7 Sudeste 15 Sudeste 0 -- -- 76
2019-03-29 21:00:00 11.1 9 Sudeste 20 Sudeste 0 -- -- 73
2019-03-29 20:00:00 11.7 14 Sudeste 21 Sudeste 0 -- -- 69
2019-03-29 19:00:00 13.6 13 Sudeste 27 Sudeste 0 -- -- 52
2019-03-29 18:00:00 15.3 16 Sudeste 32 Este 0 -- -- 45
2019-03-29 17:00:00 16.5 16 Sudeste 30 Sudeste 0 -- -- 42
2019-03-29 16:00:00 17.4 18 Sudeste 33 Sudeste 0 -- -- 46
2019-03-29 15:00:00 17.7 16 Este 32 Sudeste 0 -- -- 46
2019-03-29 14:00:00 17.7 17 Sudeste 39 Sudeste 0 -- -- 52
2019-03-29 13:00:00 17.7 18 Sudeste 36 Este 0 -- -- 53
2019-03-29 12:00:00 17.2 18 Sudeste 32 Sudeste 0 -- -- 53
2019-03-29 11:00:00 16.3 15 Sudeste 28 Sudeste 0 -- -- 57
2019-03-29 10:00:00 14.7 12 Sudeste 20 Este 0 -- -- 67
2019-03-29 09:00:00 9.8 4 Norte 8 Norte 0 -- -- 78
2019-03-29 08:00:00 5.9 0 Calma 3 Noroeste 0 -- -- 96
2019-03-29 07:00:00 3.2 2 Oeste 4 Sudoeste 0 -- -- 95
2019-03-29 06:00:00 3.6 0 Calma 4 Sudoeste 0 -- -- 94
2019-03-29 05:00:00 4.5 0 Calma 4 Sur 0 -- -- 91
2019-03-29 04:00:00 6.5 0 Calma 12 Sur 0 -- -- 86
2019-03-29 03:00:00 9.4 7 Sur 13 Sur 0 -- -- 89
2019-03-29 02:00:00 9.8 9 Sur 21 Sudeste 0 -- -- 87
2019-03-29 01:00:00 10.2 12 Sudeste 22 Sudeste 0 -- -- 86
2019-03-29 00:00:00 10.3 13 Sudeste 22 Sudeste 0 -- -- 84
2019-03-28 23:00:00 10.1 12 Sudeste 22 Sudeste 0 -- -- 83
2019-03-28 22:00:00 9.9 9 Sur 17 Sur 0 -- -- 80
2019-03-28 21:00:00 10.4 9 Sudeste 17 Sudeste 0 -- -- 74
2019-03-28 20:00:00 11.9 12 Sudeste 23 Sudeste 0 -- -- 72
2019-03-28 19:00:00 14 12 Sudeste 31 Sudeste 0 -- -- 57
2019-03-28 18:00:00 16.4 16 Sudeste 39 Este 0 -- -- 43
2019-03-28 17:00:00 17.9 17 Sudeste 39 Sudeste 0 -- -- 33
2019-03-28 16:00:00 18.8 18 Sudeste 36 Sudeste 0 -- -- 29
2019-03-28 15:00:00 19.4 20 Sudeste 32 Sudeste 0 -- -- 28
2019-03-28 14:00:00 19.7 7 Nordeste 18 Nordeste 0 -- -- 33
2019-03-28 13:00:00 18.1 6 Norte 18 Norte 0 -- -- 35
2019-03-28 12:00:00 16.4 6 Noroeste 16 Norte 0 -- -- 42
2019-03-28 11:00:00 14.1 6 Noroeste 14 Noroeste 0 -- -- 48
2019-03-28 10:00:00 12.4 7 Norte 12 Norte 0 -- -- 54
2019-03-28 09:00:00 8.8 4 Noroeste 9 Oeste 0 -- -- 69
2019-03-28 08:00:00 5.8 0 Calma 5 Sudoeste 0 -- -- 88
2019-03-28 07:00:00 3.5 2 Oeste 9 Oeste 0 -- -- 92
2019-03-28 06:00:00 4 3 Noroeste 6 Noroeste 0 -- -- 93
2019-03-28 05:00:00 4.5 3 Noroeste 8 Oeste 0 -- -- 93
2019-03-28 04:00:00 4.2 0 Calma 6 Oeste 0 -- -- 92
2019-03-28 03:00:00 4.6 5 Oeste 6 Oeste 0 -- -- 89
2019-03-28 02:00:00 6.8 3 Oeste 10 Sur 0 -- -- 80
2019-03-28 01:00:00 8 3 Sur 15 Sudeste 0 -- -- 79
2019-03-28 00:00:00 10.3 11 Sudeste 19 Sudeste 0 -- -- 80
2019-03-27 23:00:00 10.2 10 Sudeste 18 Sur 0 -- -- 80
2019-03-27 22:00:00 10.5 9 Sudeste 19 Sur 0 -- -- 77
2019-03-27 21:00:00 11.2 12 Sur 18 Sur 0 -- -- 70
2019-03-27 20:00:00 12.2 8 Sur 22 Sudeste 0 -- -- 55
2019-03-27 19:00:00 14.9 13 Sudeste 30 Sudeste 0 -- -- 39
2019-03-27 18:00:00 16.9 15 Sudeste 32 Sudeste 0 -- -- 40
2019-03-27 17:00:00 18.2 17 Sudeste 33 Sudeste 0 -- -- 37
2019-03-27 16:00:00 20 14 Este 29 Sudeste 0 -- -- 33
2019-03-27 15:00:00 20.7 4 Norte 16 Oeste 0 -- -- 23
2019-03-27 14:00:00 19.9 8 Oeste 18 Sudoeste 0 -- -- 24
2019-03-27 13:00:00 17.8 6 Norte 18 Norte 0 -- -- 31
2019-03-27 12:00:00 16.8 6 Este 16 Norte 0 -- -- 35
2019-03-27 11:00:00 14.2 4 Noroeste 15 Noroeste 0 -- -- 41
2019-03-27 10:00:00 11.2 9 Noroeste 14 Noroeste 0 -- -- 53
2019-03-27 09:00:00 8.1 5 Noroeste 14 Noroeste 0 -- -- 69
2019-03-27 08:00:00 5.4 6 Noroeste 10 Oeste 0 -- -- 84
2019-03-27 07:00:00 3.2 5 Oeste 8 Oeste 0 -- -- 91
2019-03-27 06:00:00 3.5 3 Noroeste 8 Oeste 0 -- -- 90
2019-03-27 05:00:00 3.3 4 Noroeste 8 Oeste 0 -- -- 88
2019-03-27 04:00:00 4.9 4 Noroeste 8 Noroeste 0 -- -- 87
2019-03-27 03:00:00 4.3 4 Oeste 5 Oeste 0 -- -- 86
2019-03-27 02:00:00 5.7 4 Oeste 8 Oeste 0 -- -- 85
2019-03-27 01:00:00 6.6 2 Sudoeste 12 Sudeste 0 -- -- 78
2019-03-27 00:00:00 9.1 9 Sur 14 Sur 0 -- -- 69
2019-03-26 23:00:00 9.6 9 Sudeste 21 Sudeste 0 -- -- 67
2019-03-26 22:00:00 10 10 Sudeste 20 Sudeste 0 -- -- 66
2019-03-26 21:00:00 10.9 10 Sudeste 19 Sudeste 0 -- -- 62
2019-03-26 20:00:00 11.6 12 Sudeste 30 Sudeste 0 -- -- 61
2019-03-26 19:00:00 12.4 16 Sudeste 37 Sudeste 0 -- -- 59
2019-03-26 18:00:00 14.1 20 Sudeste 50 Sudeste 0 -- -- 56
2019-03-26 17:00:00 19.7 20 Este 41 Este 0 -- -- 34
2019-03-26 16:00:00 20.8 13 Norte 22 Noroeste 0 -- -- 21
2019-03-26 15:00:00 20.5 6 Oeste 27 Norte 0 -- -- 25
2019-03-26 14:00:00 19.3 14 Norte 27 Norte 0 -- -- 25
2019-03-26 13:00:00 18.4 13 Oeste 27 Noroeste 0 -- -- 33
2019-03-26 12:00:00 16.6 14 Noroeste 23 Noroeste 0 -- -- 34
2019-03-26 11:00:00 15.3 9 Noroeste 36 Oeste 0 -- -- 41
2019-03-26 10:00:00 13.6 11 Oeste 23 Oeste 0 -- -- 48
2019-03-26 09:00:00 10.8 8 Norte 18 Norte 0 -- -- 59
2019-03-26 08:00:00 7.7 5 Noroeste 17 Noroeste 0 -- -- 69
2019-03-26 07:00:00 7.1 8 Norte 20 Noroeste 0 -- -- 69
2019-03-26 06:00:00 8.6 11 Noroeste 15 Noroeste 0 -- -- 64
2019-03-26 05:00:00 9.9 10 Noroeste 31 Oeste 0 -- -- 59
2019-03-26 04:00:00 10.3 17 Oeste 37 Noroeste 0 -- -- 57
2019-03-26 03:00:00 10.4 14 Noroeste 33 Noroeste 0 -- -- 56
2019-03-26 02:00:00 10.8 16 Noroeste 38 Noroeste 0 -- -- 54
2019-03-26 01:00:00 11.5 12 Oeste 41 Oeste 0 -- -- 53
2019-03-26 00:00:00 12.1 17 Oeste 40 Sudoeste 0 -- -- 51
2019-03-25 23:00:00 13.2 18 Oeste 40 Oeste 0 -- -- 47
2019-03-25 22:00:00 14.5 12 Oeste 33 Oeste 0 -- -- 42
2019-03-25 21:00:00 15.1 12 Noroeste 23 Oeste 0 -- -- 37
2019-03-25 20:00:00 16.1 7 Noroeste 20 Oeste 0 -- -- 35
2019-03-25 19:00:00 17.8 8 Oeste 29 Oeste 0 -- -- 34
2019-03-25 18:00:00 19.7 16 Oeste 29 Oeste 0 -- -- 32
2019-03-25 17:00:00 21.6 17 Oeste 34 Oeste 0 -- -- 31
2019-03-25 16:00:00 21.9 12 Oeste 31 Sudoeste 0 -- -- 34
2019-03-25 15:00:00 21.8 17 Oeste 38 Sudoeste 0 -- -- 36
2019-03-25 14:00:00 21.1 18 Oeste 38 Oeste 0 -- -- 38
2019-03-25 13:00:00 20.1 15 Oeste 32 Oeste 0 -- -- 41
2019-03-25 12:00:00 19.2 17 Oeste 33 Oeste 0 -- -- 42
2019-03-25 11:00:00 18.3 14 Oeste 36 Oeste 0 -- -- 41
2019-03-25 10:00:00 17.1 14 Noroeste 33 Oeste 0 -- -- 40
2019-03-25 09:00:00 12.8 10 Norte 17 Noroeste 0 -- -- 55
2019-03-25 08:00:00 8.5 7 Noroeste 11 Oeste 0 -- -- 67
2019-03-25 07:00:00 6.4 6 Oeste 13 Norte 0 -- -- 73
2019-03-25 06:00:00 6.8 6 Oeste 12 Oeste 0 -- -- 69
2019-03-25 05:00:00 7.1 7 Noroeste 10 Noroeste 0 -- -- 68
2019-03-25 04:00:00 6.6 8 Oeste 10 Oeste 0 -- -- 73
2019-03-25 03:00:00 6.3 6 Noroeste 8 Noroeste 0 -- -- 77
2019-03-25 02:00:00 7 3 Sur 13 Sudeste 0 -- -- 73
2019-03-25 01:00:00 7.5 7 Noroeste 10 Noroeste 0 -- -- 72
2019-03-25 00:00:00 7.8 3 Sur 6 Norte 0 -- -- 70
2019-03-24 23:00:00 10.6 4 Norte 13 Sudoeste 0 -- -- 61
2019-03-24 22:00:00 11.5 7 Sur 12 Sudoeste 0 -- -- 54
2019-03-24 21:00:00 13.8 8 Sur 19 Sur 0 -- -- 49
2019-03-24 20:00:00 15.9 12 Sudeste 18 Sur 0 -- -- 44
2019-03-24 19:00:00 17.8 10 Sur 23 Sudeste 0 -- -- 37
2019-03-24 18:00:00 20.3 14 Sudeste 30 Sudeste 0 -- -- 32
2019-03-24 17:00:00 21.5 17 Sudeste 30 Sudeste 0 -- -- 31
2019-03-24 16:00:00 22.5 16 Sudeste 32 Sudeste 0 -- -- 30
2019-03-24 15:00:00 23.7 18 Sudeste 29 Sudeste 0 -- -- 28
2019-03-24 14:00:00 23.6 7 Norte 14 Norte 0 -- -- 23
2019-03-24 13:00:00 22.1 6 Norte 12 Noroeste 0 -- -- 29
2019-03-24 12:00:00 19.5 5 Noroeste 14 Noroeste 0 -- -- 36
2019-03-24 11:00:00 15.8 4 Noroeste 14 Noroeste 0 -- -- 44
2019-03-24 10:00:00 11.9 6 Noroeste 11 Noroeste 0 -- -- 51
2019-03-24 09:00:00 7.9 4 Noroeste 8 Noroeste 0 -- -- 61
2019-03-24 08:00:00 6.3 0 Calma 4 Sudoeste 0 -- -- 67
2019-03-24 07:00:00 3.2 0 Calma 3 Oeste 0 -- -- 79
2019-03-24 06:00:00 3.7 0 Calma 8 Sudoeste 0 -- -- 75
2019-03-24 05:00:00 3.4 0 Calma 5 Oeste 0 -- -- 79
2019-03-24 04:00:00 3.3 0 Calma 2 Sur 0 -- -- 80
2019-03-24 03:00:00 4 0 Calma 2 Oeste 0 -- -- 78
2019-03-24 02:00:00 4.7 0 Calma 3 Noroeste 0 -- -- 76
2019-03-24 01:00:00 5.2 0 Calma 4 Oeste 0 -- -- 73
2019-03-24 00:00:00 5.9 0 Calma 4 Sur 0 -- -- 70
2019-03-23 23:00:00 7.9 4 Sudoeste 6 Oeste 0 -- -- 64
2019-03-23 22:00:00 9.6 5 Sur 10 Sur 0 -- -- 58
2019-03-23 21:00:00 13.2 6 Sur 13 Sur 0 -- -- 48
2019-03-23 20:00:00 14.4 8 Sur 14 Sudeste 0 -- -- 47
2019-03-23 19:00:00 18 10 Sudeste 22 Sudeste 0 -- -- 37
2019-03-23 18:00:00 21.1 12 Sudeste 24 Sudeste 0 -- -- 30
2019-03-23 17:00:00 22.4 14 Sudeste 27 Sudeste 0 -- -- 25
2019-03-23 16:00:00 23.6 10 Sudeste 25 Sudeste 0 -- -- 23
2019-03-23 15:00:00 24.1 12 Sur 21 Sur 0 -- -- 24
2019-03-23 14:00:00 22.1 6 Norte 13 Noroeste 0 -- -- 30
2019-03-23 13:00:00 20.4 5 Norte 13 Norte 0 -- -- 36
2019-03-23 12:00:00 17.9 4 Norte 12 Noroeste 0 -- -- 43
2019-03-23 11:00:00 14.6 5 Noroeste 10 Norte 0 -- -- 48
2019-03-23 10:00:00 11.1 6 Noroeste 9 Noroeste 0 -- -- 56
2019-03-23 09:00:00 7.5 4 Norte 8 Norte 0 -- -- 68
2019-03-23 08:00:00 3.7 0 Calma 5 Noroeste 0 -- -- 86
2019-03-23 07:00:00 1.3 3 Noroeste 4 Noroeste 0 -- -- 91
2019-03-23 06:00:00 1.6 0 Calma 4 Noroeste 0 -- -- 88
2019-03-23 05:00:00 2.3 0 Calma 3 Noroeste 0 -- -- 87
2019-03-23 04:00:00 2.8 0 Calma 4 Noroeste 0 -- -- 83
2019-03-23 03:00:00 3.5 0 Calma 4 Oeste 0 -- -- 81
2019-03-23 02:00:00 4 3 Sudeste 4 Sur 0 -- -- 79
2019-03-23 01:00:00 5.2 0 Calma 5 Oeste 0 -- -- 74
2019-03-23 00:00:00 6.1 3 Oeste 8 Sur 0 -- -- 70
2019-03-22 23:00:00 7.8 2 Sudeste 8 Sudeste 0 -- -- 62
2019-03-22 22:00:00 10.1 0 Calma 15 Sudeste 0 -- -- 53
2019-03-22 21:00:00 13 12 Sur 18 Sudeste 0 -- -- 43
2019-03-22 20:00:00 13.5 13 Sudeste 18 Sudeste 0 -- -- 45
2019-03-22 19:00:00 15.4 10 Sudeste 39 Sudeste 0 -- -- 40
2019-03-22 18:00:00 17.8 17 Sudeste 29 Sudeste 0 -- -- 36
2019-03-22 17:00:00 20 16 Sudeste 25 Sudeste 0 -- -- 32
2019-03-22 16:00:00 21.4 8 Sudeste 18 Sudeste 0 -- -- 30
2019-03-22 15:00:00 20.5 5 Norte 12 Sudoeste 0 -- -- 34
2019-03-22 14:00:00 19.9 3 Sudeste 13 Noroeste 0 -- -- 34
2019-03-22 13:00:00 17.9 7 Noroeste 14 Noroeste 0 -- -- 36
2019-03-22 12:00:00 15.8 7 Norte 13 Noroeste 0 -- -- 46
2019-03-22 11:00:00 13.3 5 Norte 12 Noroeste 0 -- -- 52
2019-03-22 10:00:00 10.3 5 Norte 9 Norte 0 -- -- 61
2019-03-22 09:00:00 6.7 4 Noroeste 8 Noroeste 0 -- -- 74
2019-03-22 08:00:00 3.3 3 Oeste 5 Oeste 0 -- -- 92
2019-03-22 07:00:00 2.3 5 Noroeste 6 Oeste 0 -- -- 95
2019-03-22 06:00:00 1.6 3 Noroeste 6 Oeste 0 -- -- 93
2019-03-22 05:00:00 1.4 0 Calma 3 Noroeste 0 -- -- 90
2019-03-22 04:00:00 2.7 3 Oeste 6 Oeste 0 -- -- 89
2019-03-22 03:00:00 3.4 4 Noroeste 6 Oeste 0 -- -- 90
2019-03-22 02:00:00 2.4 0 Calma 6 Sur 0 -- -- 88
2019-03-22 01:00:00 2.8 2 Sudoeste 4 Noroeste 0 -- -- 85
2019-03-22 00:00:00 4 2 Noroeste 4 Noroeste 0 -- -- 80
2019-03-21 23:00:00 5 0 Calma 9 Sudeste 0 -- -- 75
2019-03-21 22:00:00 6.6 5 Sudeste 9 Sudeste 0 -- -- 68
2019-03-21 21:00:00 7.6 7 Sudeste 11 Sudeste 0 -- -- 68
2019-03-21 20:00:00 10.1 8 Sur 12 Sur 0 -- -- 61
2019-03-21 19:00:00 12.4 8 Sudeste 23 Sudeste 0 -- -- 54
2019-03-21 18:00:00 14.4 14 Sudeste 30 Sudeste 0 -- -- 47
2019-03-21 17:00:00 15.7 16 Sudeste 31 Sudeste 0 -- -- 45
2019-03-21 16:00:00 16.6 18 Sudeste 31 Sudeste 0 -- -- 37
2019-03-21 15:00:00 18.3 8 Nordeste 17 Nordeste 0 -- -- 33
2019-03-21 14:00:00 16.9 5 Norte 27 Norte 0 -- -- 34
2019-03-21 13:00:00 16.2 10 Norte 27 Noroeste 0 -- -- 39
2019-03-21 12:00:00 14.7 14 Norte 27 Noroeste 0 -- -- 41
2019-03-21 11:00:00 13.1 6 Norte 17 Norte 0 -- -- 50
2019-03-21 10:00:00 10.2 7 Noroeste 12 Noroeste 0 -- -- 58
2019-03-21 09:00:00 6.9 4 Noroeste 8 Noroeste 0 -- -- 71
2019-03-21 08:00:00 4.8 3 Noroeste 9 Oeste 0 -- -- 79
2019-03-21 07:00:00 3.6 5 Oeste 10 Oeste 0 -- -- 84
2019-03-21 06:00:00 3.8 6 Oeste 8 Oeste 0 -- -- 86
2019-03-21 05:00:00 4.5 5 Oeste 10 Noroeste 0 -- -- 80
2019-03-21 04:00:00 3.8 4 Oeste 10 Oeste 0 -- -- 87
2019-03-21 03:00:00 5.9 6 Oeste 8 Oeste 0 -- -- 82
2019-03-21 02:00:00 6.2 5 Oeste 8 Noroeste 0 -- -- 80
2019-03-21 01:00:00 6.8 4 Noroeste 5 Noroeste 0 -- -- 78
2019-03-21 00:00:00 7.9 2 Norte 8 Sur 0 -- -- 74
2019-03-20 23:00:00 9.8 5 Sur 11 Sudeste 0 -- -- 68
2019-03-20 22:00:00 9.6 7 Sudeste 15 Sudeste 0 -- -- 66
2019-03-20 21:00:00 8.9 9 Sudeste 15 Sudeste 0 -- -- 66
2019-03-20 20:00:00 9.7 10 Sudeste 19 Sudeste 0 -- -- 65
2019-03-20 19:00:00 12 10 Sudeste 28 Sudeste 0 -- -- 53
2019-03-20 18:00:00 13.9 16 Sudeste 29 Sudeste 0 -- -- 43
2019-03-20 17:00:00 15.2 16 Sudeste 30 Sudeste 0 -- -- 44
2019-03-20 16:00:00 15.8 12 Este 22 Este 0 -- -- 42
2019-03-20 15:00:00 16.9 6 Norte 21 Noroeste 0 -- -- 35
2019-03-20 14:00:00 16.1 8 Norte 27 Nordeste 0 -- -- 30
2019-03-20 13:00:00 15.3 8 Oeste 31 Norte 0 -- -- 40
2019-03-20 12:00:00 13.8 12 Noroeste 28 Noroeste 0 -- -- 47
2019-03-20 11:00:00 12.7 16 Norte 31 Noroeste 0 -- -- 52
2019-03-20 10:00:00 11 14 Noroeste 27 Norte 0 -- -- 57
2019-03-20 09:00:00 9.6 6 Norte 13 Norte 0 -- -- 62
2019-03-20 08:00:00 6.5 6 Norte 12 Norte 0 -- -- 72
2019-03-20 07:00:00 6 6 Norte 18 Noroeste 0 -- -- 71
2019-03-20 06:00:00 4.3 2 Este 5 Nordeste 0 -- -- 78
2019-03-20 05:00:00 7.1 0 Calma 11 Oeste 0 -- -- 67
2019-03-20 04:00:00 8.6 2 Sudoeste 22 Oeste 0 -- -- 60
2019-03-20 03:00:00 9.1 14 Oeste 30 Oeste 0 -- -- 57
2019-03-20 02:00:00 9.6 15 Oeste 26 Oeste 0 -- -- 56
2019-03-20 01:00:00 10.1 9 Oeste 23 Sudoeste 0 -- -- 54
2019-03-20 00:00:00 10.7 10 Sudoeste 26 Sudoeste 0 -- -- 51
2019-03-19 23:00:00 10.4 6 Oeste 19 Oeste 0 -- -- 58
2019-03-19 22:00:00 10.1 3 Sudoeste 15 Sudeste 0 -- -- 77
2019-03-19 21:00:00 11 11 Sudeste 23 Sudeste 0 -- -- 75
2019-03-19 20:00:00 11.4 15 Sudeste 24 Sudeste 0 -- -- 73
2019-03-19 19:00:00 11.6 12 Sudeste 28 Sudeste 0 -- -- 73
2019-03-19 18:00:00 12.4 18 Sudeste 31 Sudeste 0 -- -- 71
2019-03-19 17:00:00 13.7 19 Sudeste 33 Sudeste 0 -- -- 61
2019-03-19 16:00:00 16.8 3 Sudoeste 15 Norte 0 -- -- 33
2019-03-19 15:00:00 16.5 5 Norte 27 Noroeste 0 -- -- 34
2019-03-19 14:00:00 16.5 14 Oeste 28 Noroeste 0 -- -- 38
2019-03-19 13:00:00 15.5 15 Noroeste 33 Noroeste 0 -- -- 44
2019-03-19 12:00:00 14.7 15 Oeste 33 Oeste 0 -- -- 47
2019-03-19 11:00:00 12.5 22 Noroeste 33 Oeste 0 -- -- 53
2019-03-19 10:00:00 11.8 10 Oeste 28 Oeste 0 -- -- 56
2019-03-19 09:00:00 10.5 13 Oeste 27 Oeste 0 -- -- 59
2019-03-19 08:00:00 9.4 9 Oeste 25 Oeste 0 -- -- 63
2019-03-19 07:00:00 9.4 8 Oeste 31 Oeste 0 -- -- 62
2019-03-19 06:00:00 9.7 18 Oeste 30 Oeste 0 -- -- 61
2019-03-19 05:00:00 9.8 11 Noroeste 31 Oeste 0 -- -- 59
2019-03-19 04:00:00 10 15 Oeste 36 Oeste 0 -- -- 55
2019-03-19 03:00:00 10.2 22 Oeste 37 Oeste 0 -- -- 53
2019-03-19 02:00:00 10.5 20 Oeste 36 Oeste 0 -- -- 50
2019-03-19 01:00:00 10.9 17 Oeste 35 Oeste 0 -- -- 47
2019-03-19 00:00:00 11.4 19 Oeste 38 Sudoeste 0 -- -- 44